createdAt,value
2019-02-11T00:00:36.782Z,19.00
2019-02-11T00:03:04.623Z,19.00
2019-02-11T00:05:32.495Z,19.00
2019-02-11T00:08:00.343Z,19.00
2019-02-11T00:10:28.299Z,19.00
2019-02-11T00:12:56.147Z,18.90
2019-02-11T00:15:24.006Z,18.90
2019-02-11T00:17:51.843Z,18.90
2019-02-11T00:20:19.710Z,18.90
2019-02-11T00:22:47.552Z,18.90
2019-02-11T00:25:15.512Z,18.90
2019-02-11T00:27:43.694Z,18.90
2019-02-11T00:30:11.571Z,18.90
2019-02-11T00:32:39.422Z,18.90
2019-02-11T00:35:07.383Z,18.90
2019-02-11T00:37:35.226Z,18.80
2019-02-11T00:40:03.101Z,18.80
2019-02-11T00:42:30.997Z,18.80
2019-02-11T00:44:58.866Z,18.80
2019-02-11T00:47:26.711Z,18.80
2019-02-11T00:49:54.579Z,18.80
2019-02-11T00:52:22.418Z,18.80
2019-02-11T00:54:50.283Z,18.80
2019-02-11T00:57:18.132Z,18.80
2019-02-11T00:59:45.962Z,18.70
2019-02-11T01:02:13.816Z,18.70
2019-02-11T01:04:41.655Z,18.70
2019-02-11T01:07:09.576Z,18.70
2019-02-11T01:09:37.423Z,18.70
2019-02-11T01:12:05.690Z,18.70
2019-02-11T01:14:33.863Z,18.70
2019-02-11T01:17:01.802Z,18.70
2019-02-11T01:19:29.638Z,18.70
2019-02-11T01:21:57.506Z,18.70
2019-02-11T01:24:25.344Z,18.70
2019-02-11T01:26:53.503Z,18.60
2019-02-11T01:29:21.347Z,18.60
2019-02-11T01:31:49.214Z,18.60
2019-02-11T01:34:17.126Z,18.60
2019-02-11T01:36:44.991Z,18.60
2019-02-11T01:39:12.837Z,18.60
2019-02-11T01:41:40.723Z,18.60
2019-02-11T01:44:08.566Z,18.60
2019-02-11T01:46:36.434Z,18.60
2019-02-11T01:49:04.280Z,18.50
2019-02-11T01:51:32.160Z,18.50
2019-02-11T01:54:00.084Z,18.50
2019-02-11T01:56:27.950Z,18.50
2019-02-11T01:58:55.794Z,18.50
2019-02-11T02:01:23.658Z,18.50
2019-02-11T02:03:51.495Z,18.50
2019-02-11T02:06:19.376Z,18.50
2019-02-11T02:08:47.287Z,18.50
2019-02-11T02:11:15.157Z,18.50
2019-02-11T02:13:44.952Z,18.50
2019-02-11T02:16:12.598Z,18.50
2019-02-11T02:18:40.739Z,18.50
2019-02-11T02:21:08.912Z,18.50
2019-02-11T02:23:38.400Z,18.50
2019-02-11T02:26:06.262Z,18.50
2019-02-11T02:28:34.560Z,18.50
2019-02-11T02:31:02.449Z,18.40
2019-02-11T02:33:30.366Z,18.40
2019-02-11T02:35:58.219Z,18.40
2019-02-11T02:38:26.050Z,18.40
2019-02-11T02:40:53.898Z,18.40
2019-02-11T02:43:21.739Z,18.40
2019-02-11T02:45:49.588Z,18.40
2019-02-11T02:48:17.418Z,18.40
2019-02-11T02:50:45.263Z,18.40
2019-02-11T02:53:13.107Z,18.40
2019-02-11T02:55:40.965Z,18.40
2019-02-11T02:58:08.804Z,18.40
2019-02-11T03:00:36.642Z,18.40
2019-02-11T03:03:04.809Z,18.40
2019-02-11T03:05:32.706Z,18.40
2019-02-11T03:08:00.563Z,18.40
2019-02-11T03:10:28.691Z,18.30
2019-02-11T03:12:56.606Z,18.30
2019-02-11T03:15:24.454Z,18.30
2019-02-11T03:17:52.306Z,18.30
2019-02-11T03:20:20.236Z,18.30
2019-02-11T03:22:48.080Z,18.30
2019-02-11T03:25:16.324Z,18.30
2019-02-11T03:27:44.175Z,18.30
2019-02-11T03:30:12.072Z,18.30
2019-02-11T03:32:39.925Z,18.30
2019-02-11T03:35:07.844Z,18.30
2019-02-11T03:37:35.741Z,18.30
2019-02-11T03:40:03.875Z,18.30
2019-02-11T03:42:32.003Z,18.30
2019-02-11T03:44:59.848Z,18.30
2019-02-11T03:47:27.692Z,18.30
2019-02-11T03:49:55.536Z,18.30
2019-02-11T03:52:23.389Z,18.20
2019-02-11T03:54:51.223Z,18.20
2019-02-11T03:57:19.068Z,18.20
2019-02-11T03:59:46.920Z,18.20
2019-02-11T04:02:14.769Z,18.20
2019-02-11T04:04:42.618Z,18.20
2019-02-11T04:07:10.578Z,18.20
2019-02-11T04:09:38.420Z,18.20
2019-02-11T04:12:06.300Z,18.20
2019-02-11T04:14:34.224Z,18.20
2019-02-11T04:17:02.058Z,18.20
2019-02-11T04:19:29.903Z,18.20
2019-02-11T04:22:06.054Z,18.20
2019-02-11T04:24:33.909Z,18.10
2019-02-11T04:27:02.085Z,18.10
2019-02-11T04:29:30.260Z,18.10
2019-02-11T04:31:58.103Z,18.10
2019-02-11T04:34:25.948Z,18.10
2019-02-11T04:36:53.791Z,18.10
2019-02-11T04:39:21.645Z,18.10
2019-02-11T04:41:49.475Z,18.10
2019-02-11T04:44:17.328Z,18.10
2019-02-11T04:46:45.163Z,18.10
2019-02-11T04:49:13.007Z,18.10
2019-02-11T04:51:40.855Z,18.10
2019-02-11T04:54:08.695Z,18.10
2019-02-11T04:56:36.870Z,18.10
2019-02-11T04:59:04.715Z,18.00
2019-02-11T05:01:32.559Z,18.00
2019-02-11T05:04:00.417Z,18.00
2019-02-11T05:06:28.267Z,18.00
2019-02-11T05:08:56.106Z,18.00
2019-02-11T05:11:23.956Z,18.00
2019-02-11T05:13:51.806Z,18.00
2019-02-11T05:16:19.652Z,18.00
2019-02-11T05:18:47.659Z,18.00
2019-02-11T05:21:15.488Z,18.00
2019-02-11T05:23:43.364Z,18.00
2019-02-11T05:26:11.204Z,18.00
2019-02-11T05:28:39.091Z,18.00
2019-02-11T05:31:06.938Z,18.00
2019-02-11T05:33:34.843Z,18.00
2019-02-11T05:36:02.746Z,18.00
2019-02-11T05:38:30.680Z,18.00
2019-02-11T05:40:58.514Z,18.00
2019-02-11T05:43:26.387Z,18.00
2019-02-11T05:45:54.221Z,18.00
2019-02-11T05:48:22.387Z,18.00
2019-02-11T05:50:50.226Z,18.00
2019-02-11T05:53:18.070Z,18.00
2019-02-11T05:55:45.958Z,18.00
2019-02-11T05:58:13.795Z,18.00
2019-02-11T06:00:41.714Z,18.00
2019-02-11T06:03:09.719Z,18.00
2019-02-11T06:05:37.686Z,18.00
2019-02-11T06:08:05.531Z,18.10
2019-02-11T06:10:33.676Z,18.10
2019-02-11T06:13:01.604Z,18.10
2019-02-11T06:15:29.451Z,18.20
2019-02-11T06:17:57.609Z,18.20
2019-02-11T06:20:25.454Z,18.30
2019-02-11T06:22:53.300Z,18.30
2019-02-11T06:25:21.156Z,18.30
2019-02-11T06:27:49.002Z,18.40
2019-02-11T06:30:16.852Z,18.40
2019-02-11T06:32:44.695Z,18.40
2019-02-11T06:35:12.547Z,18.40
2019-02-11T06:37:40.416Z,18.40
2019-02-11T06:40:08.631Z,18.50
2019-02-11T06:42:36.579Z,18.40
2019-02-11T06:45:12.518Z,18.50
2019-02-11T06:47:34.256Z,18.50
2019-02-11T06:50:02.430Z,18.50
2019-02-11T06:52:30.274Z,18.50
2019-02-11T06:54:58.151Z,18.50
2019-02-11T06:57:26.009Z,18.80
2019-02-11T06:59:54.961Z,19.00
2019-02-11T07:02:23.734Z,19.10
2019-02-11T07:04:51.791Z,19.20
2019-02-11T07:07:19.631Z,19.20
2019-02-11T07:09:47.535Z,19.30
2019-02-11T07:12:15.375Z,19.30
2019-02-11T07:14:43.251Z,19.30
2019-02-11T07:17:11.398Z,19.30
2019-02-11T07:19:39.340Z,19.30
2019-02-11T07:22:07.263Z,19.30
2019-02-11T07:24:35.107Z,19.40
2019-02-11T07:27:02.951Z,19.40
2019-02-11T07:29:31.153Z,19.40
2019-02-11T07:31:58.995Z,19.40
2019-02-11T07:34:26.844Z,19.40
2019-02-11T07:36:55.060Z,19.50
2019-02-11T07:39:22.900Z,19.50
2019-02-11T07:42:25.251Z,19.50
2019-02-11T07:44:58.771Z,19.50
2019-02-11T07:47:26.690Z,19.50
2019-02-11T07:49:54.528Z,19.60
2019-02-11T07:52:26.924Z,19.60
2019-02-11T07:54:52.007Z,19.60
2019-02-11T07:57:19.856Z,19.50
2019-02-11T07:59:47.901Z,19.50
2019-02-11T08:02:15.743Z,19.50
2019-02-11T08:04:43.590Z,19.60
2019-02-11T08:07:11.443Z,19.60
2019-02-11T08:09:39.359Z,19.60
2019-02-11T08:12:07.234Z,19.70
2019-02-11T08:14:35.145Z,19.70
2019-02-11T08:17:03.062Z,19.70
2019-02-11T08:19:31.044Z,19.70
2019-02-11T08:21:58.956Z,19.70
2019-02-11T08:24:26.795Z,19.70
2019-02-11T08:26:54.739Z,19.70
2019-02-11T08:29:22.604Z,19.70
2019-02-11T08:31:50.447Z,19.70
2019-02-11T08:34:18.320Z,19.80
2019-02-11T08:36:46.179Z,19.80
2019-02-11T08:39:14.118Z,19.80
2019-02-11T08:41:41.962Z,19.80
2019-02-11T08:44:10.144Z,19.80
2019-02-11T08:46:38.315Z,19.90
2019-02-11T08:49:06.190Z,19.90
2019-02-11T08:51:34.110Z,19.90
2019-02-11T08:54:02.311Z,19.90
2019-02-11T08:56:30.170Z,19.90
2019-02-11T08:58:58.094Z,19.90
2019-02-11T09:01:26.208Z,19.90
2019-02-11T09:03:54.403Z,19.90
2019-02-11T09:06:22.564Z,20.00
2019-02-11T09:08:50.412Z,20.00
2019-02-11T09:11:18.342Z,20.00
2019-02-11T09:13:46.269Z,20.00
2019-02-11T09:16:14.190Z,20.00
2019-02-11T09:18:42.027Z,20.00
2019-02-11T09:21:09.873Z,20.10
2019-02-11T09:23:37.983Z,20.10
2019-02-11T09:26:05.877Z,20.10
2019-02-11T09:28:33.815Z,20.10
2019-02-11T09:31:01.756Z,20.10
2019-02-11T09:33:29.885Z,20.00
2019-02-11T09:35:57.831Z,19.90
2019-02-11T09:38:25.743Z,19.90
2019-02-11T09:40:53.614Z,19.90
2019-02-11T09:43:21.527Z,19.90
2019-02-11T09:45:49.390Z,19.90
2019-02-11T09:48:17.816Z,19.80
2019-02-11T09:50:47.171Z,19.80
2019-02-11T09:53:15.023Z,19.90
2019-02-11T09:55:42.882Z,19.90
2019-02-11T09:58:10.730Z,19.90
2019-02-11T10:00:38.666Z,20.00
2019-02-11T10:03:06.524Z,20.00
2019-02-11T10:05:34.391Z,20.00
2019-02-11T10:08:02.230Z,20.00
2019-02-11T10:10:30.181Z,20.00
2019-02-11T10:12:58.033Z,20.00
2019-02-11T10:15:25.971Z,20.00
2019-02-11T10:17:53.822Z,20.00
2019-02-11T10:20:21.682Z,20.10
2019-02-11T10:22:49.529Z,20.00
2019-02-11T10:25:18.762Z,20.10
2019-02-11T10:27:46.612Z,20.10
2019-02-11T10:30:14.567Z,20.00
2019-02-11T10:32:42.406Z,19.60
2019-02-11T10:35:10.867Z,19.40
2019-02-11T10:37:38.712Z,19.40
2019-02-11T10:40:07.386Z,19.60
2019-02-11T10:42:35.228Z,19.80
2019-02-11T10:45:03.178Z,19.80
2019-02-11T10:47:31.012Z,19.20
2019-02-11T10:49:58.881Z,19.00
2019-02-11T10:52:26.726Z,19.30
2019-02-11T10:54:54.612Z,19.40
2019-02-11T10:57:22.460Z,19.50
2019-02-11T10:59:50.299Z,19.70
2019-02-11T11:02:18.412Z,19.70
2019-02-11T11:04:46.250Z,19.60
2019-02-11T11:07:14.185Z,19.70
2019-02-11T11:09:42.042Z,19.70
2019-02-11T11:12:09.936Z,19.70
2019-02-11T11:14:37.790Z,19.70
2019-02-11T11:17:06.042Z,19.70
2019-02-11T11:19:33.903Z,19.70
2019-02-11T11:22:01.779Z,19.70
2019-02-11T11:24:29.939Z,19.70
2019-02-11T11:26:57.806Z,19.60
2019-02-11T11:29:25.666Z,19.60
2019-02-11T11:31:53.531Z,19.60
2019-02-11T11:34:21.371Z,19.60
2019-02-11T11:36:49.572Z,19.60
2019-02-11T11:39:22.668Z,19.60
2019-02-11T11:41:50.531Z,19.60
2019-02-11T11:44:18.719Z,19.60
2019-02-11T11:46:47.295Z,19.60
2019-02-11T11:49:15.770Z,19.60
2019-02-11T11:51:43.775Z,19.60
2019-02-11T11:54:11.690Z,19.50
2019-02-11T11:56:39.893Z,19.50
2019-02-11T11:59:07.750Z,19.50
2019-02-11T12:01:35.693Z,19.50
2019-02-11T12:04:06.181Z,19.50
2019-02-11T12:06:33.179Z,19.60
2019-02-11T12:09:01.103Z,19.60
2019-02-11T12:11:29.031Z,19.60
2019-02-11T12:13:56.900Z,19.60
2019-02-11T12:16:24.813Z,19.60
2019-02-11T12:18:53.000Z,19.70
2019-02-11T12:21:20.862Z,19.70
2019-02-11T12:23:48.794Z,19.70
2019-02-11T12:26:16.645Z,19.70
2019-02-11T12:28:44.646Z,19.70
2019-02-11T12:31:12.567Z,19.70
2019-02-11T12:33:40.418Z,19.70
2019-02-11T12:36:08.335Z,19.70
2019-02-11T12:38:36.171Z,19.70
2019-02-11T12:41:04.315Z,19.80
2019-02-11T12:43:32.236Z,19.80
2019-02-11T12:46:00.395Z,19.80
2019-02-11T12:48:28.380Z,19.90
2019-02-11T12:50:56.257Z,19.80
2019-02-11T12:53:24.166Z,19.80
2019-02-11T12:55:52.381Z,19.80
2019-02-11T12:58:20.237Z,19.80
2019-02-11T13:00:48.511Z,19.80
2019-02-11T13:03:16.430Z,19.70
2019-02-11T13:05:46.259Z,19.80
2019-02-11T13:08:14.216Z,19.90
2019-02-11T13:10:42.108Z,19.90
2019-02-11T13:13:09.952Z,19.80
2019-02-11T13:15:59.025Z,19.70
2019-02-11T13:18:07.556Z,19.70
2019-02-11T13:20:35.715Z,19.80
2019-02-11T13:23:03.588Z,19.80
2019-02-11T13:25:31.505Z,19.90
2019-02-11T13:27:59.424Z,19.90
2019-02-11T13:30:27.356Z,19.80
2019-02-11T13:32:55.304Z,19.80
2019-02-11T13:35:23.207Z,19.90
2019-02-11T13:37:54.521Z,19.90
2019-02-11T13:40:20.773Z,19.90
2019-02-11T13:42:48.699Z,19.90
2019-02-11T13:45:17.171Z,19.90
2019-02-11T13:47:56.746Z,19.90
2019-02-11T13:50:16.104Z,20.00
2019-02-11T13:52:43.967Z,19.90
2019-02-11T13:55:11.880Z,20.00
2019-02-11T13:57:39.821Z,20.00
2019-02-11T14:00:10.924Z,20.00
2019-02-11T14:02:42.099Z,20.00
2019-02-11T14:05:09.952Z,20.00
2019-02-11T14:07:38.100Z,19.90
2019-02-11T14:10:06.227Z,19.90
2019-02-11T14:12:34.135Z,19.90
2019-02-11T14:15:01.985Z,20.00
2019-02-11T14:17:30.187Z,19.90
2019-02-11T14:20:01.407Z,19.90
2019-02-11T14:22:29.399Z,19.90
2019-02-11T14:24:57.375Z,19.90
2019-02-11T14:27:25.273Z,19.90
2019-02-11T14:29:53.222Z,19.90
2019-02-11T14:32:21.154Z,19.90
2019-02-11T14:34:49.071Z,19.90
2019-02-11T14:37:16.952Z,19.90
2019-02-11T14:39:44.796Z,19.80
2019-02-11T14:42:14.968Z,19.80
2019-02-11T14:44:42.635Z,19.80
2019-02-11T14:47:10.481Z,19.80
2019-02-11T14:49:38.403Z,19.80
2019-02-11T14:52:06.250Z,19.80
2019-02-11T14:54:34.094Z,19.80
2019-02-11T14:57:01.935Z,19.80
2019-02-11T14:59:29.780Z,19.80
2019-02-11T15:01:57.626Z,19.80
2019-02-11T15:04:25.477Z,19.90
2019-02-11T15:06:53.405Z,19.90
2019-02-11T15:09:21.251Z,19.90
2019-02-11T15:11:49.095Z,20.00
2019-02-11T15:14:16.940Z,20.00
2019-02-11T15:16:44.787Z,20.00
2019-02-11T15:19:12.650Z,20.00
2019-02-11T15:21:40.488Z,20.00
2019-02-11T15:24:08.337Z,20.00
2019-02-11T15:26:36.242Z,20.00
2019-02-11T15:29:04.079Z,20.00
2019-02-11T15:31:32.275Z,20.00
2019-02-11T15:34:00.451Z,20.00
2019-02-11T15:36:28.344Z,20.10
2019-02-11T15:38:56.491Z,20.10
2019-02-11T15:41:24.378Z,20.10
2019-02-11T15:43:52.239Z,20.10
2019-02-11T15:46:20.127Z,20.10
2019-02-11T15:48:48.287Z,20.10
2019-02-11T15:51:16.560Z,20.10
2019-02-11T15:53:44.711Z,20.10
2019-02-11T15:56:12.610Z,20.10
2019-02-11T15:58:40.458Z,20.10
2019-02-11T16:01:08.299Z,20.10
2019-02-11T16:03:36.145Z,20.10
2019-02-11T16:06:10.363Z,20.10
2019-02-11T16:08:33.559Z,20.10
2019-02-11T16:11:01.749Z,20.10
2019-02-11T16:13:29.748Z,20.10
2019-02-11T16:15:57.601Z,20.10
2019-02-11T16:18:25.438Z,20.10
2019-02-11T16:20:53.595Z,20.10
2019-02-11T16:23:21.490Z,20.10
2019-02-11T16:25:49.388Z,20.10
2019-02-11T16:28:17.500Z,20.10
2019-02-11T16:30:45.347Z,20.10
2019-02-11T16:33:13.196Z,20.10
2019-02-11T16:35:41.043Z,20.10
2019-02-11T16:38:08.891Z,20.10
2019-02-11T16:40:37.049Z,20.10
2019-02-11T16:43:04.888Z,20.10
2019-02-11T16:45:32.739Z,20.10
2019-02-11T16:48:00.655Z,20.10
2019-02-11T16:50:28.507Z,20.10
2019-02-11T16:52:56.382Z,20.10
2019-02-11T16:55:24.215Z,20.10
2019-02-11T16:57:52.055Z,20.10
2019-02-11T17:00:19.915Z,20.10
2019-02-11T17:02:47.763Z,20.10
2019-02-11T17:05:15.623Z,20.10
2019-02-11T17:07:43.540Z,20.10
2019-02-11T17:10:11.693Z,20.10
2019-02-11T17:12:39.623Z,20.10
2019-02-11T17:15:08.952Z,20.10
2019-02-11T17:17:36.851Z,20.10
2019-02-11T17:20:05.252Z,20.10
2019-02-11T17:22:33.156Z,20.10
2019-02-11T17:25:01.083Z,20.10
2019-02-11T17:27:28.983Z,20.10
2019-02-11T17:29:57.128Z,20.10
2019-02-11T17:32:25.297Z,20.10
2019-02-11T17:34:53.131Z,20.10
2019-02-11T17:37:21.021Z,20.10
2019-02-11T17:39:48.872Z,20.10
2019-02-11T17:42:16.762Z,20.10
2019-02-11T17:44:44.612Z,20.10
2019-02-11T17:47:12.446Z,20.10
2019-02-11T17:49:40.291Z,20.10
2019-02-11T17:52:10.202Z,20.10
2019-02-11T17:54:38.451Z,20.10
2019-02-11T17:57:06.295Z,20.00
2019-02-11T17:59:34.487Z,20.00
2019-02-11T18:02:02.659Z,20.00
2019-02-11T18:04:30.835Z,20.00
2019-02-11T18:06:58.688Z,20.00
2019-02-11T18:09:26.540Z,20.00
2019-02-11T18:11:54.393Z,20.00
2019-02-11T18:14:22.251Z,20.00
2019-02-11T18:16:50.424Z,20.00
2019-02-11T18:19:25.802Z,20.00
2019-02-11T18:21:47.871Z,20.00
2019-02-11T18:24:15.791Z,20.00
2019-02-11T18:26:43.640Z,19.90
2019-02-11T18:29:11.539Z,19.90
2019-02-11T18:31:39.735Z,19.90
2019-02-11T18:34:07.634Z,19.90
2019-02-11T18:36:35.756Z,20.00
2019-02-11T18:39:05.579Z,19.90
2019-02-11T18:41:33.742Z,19.90
2019-02-11T18:44:01.587Z,19.90
2019-02-11T18:46:29.504Z,19.90
2019-02-11T18:48:57.423Z,20.00
2019-02-11T18:51:25.267Z,19.90
2019-02-11T18:53:53.120Z,19.90
2019-02-11T18:56:20.954Z,19.90
2019-02-11T18:58:48.804Z,20.00
2019-02-11T19:01:16.652Z,19.90
2019-02-11T19:03:44.507Z,19.90
2019-02-11T19:06:12.352Z,20.00
2019-02-11T19:08:40.201Z,19.90
2019-02-11T19:11:08.472Z,20.00
2019-02-11T19:13:36.328Z,19.90
2019-02-11T19:16:04.172Z,19.90
2019-02-11T19:18:32.356Z,19.90
2019-02-11T19:21:00.530Z,19.80
2019-02-11T19:23:28.378Z,19.80
2019-02-11T19:25:56.243Z,19.80
2019-02-11T19:28:24.097Z,19.50
2019-02-11T19:30:52.054Z,19.50
2019-02-11T19:33:19.932Z,19.50
2019-02-11T19:35:47.780Z,19.50
2019-02-11T19:38:15.623Z,19.60
2019-02-11T19:40:43.463Z,19.60
2019-02-11T19:43:11.307Z,19.60
2019-02-11T19:45:39.156Z,19.60
2019-02-11T19:48:07.153Z,19.60
2019-02-11T19:50:35.075Z,19.60
2019-02-11T19:53:02.971Z,19.40
2019-02-11T19:55:30.884Z,19.30
2019-02-11T19:57:58.774Z,19.50
2019-02-11T20:00:27.004Z,19.70
2019-02-11T20:02:54.983Z,19.80
2019-02-11T20:05:22.823Z,19.90
2019-02-11T20:07:50.725Z,19.80
2019-02-11T20:10:18.940Z,19.90
2019-02-11T20:12:47.175Z,19.90
2019-02-11T20:15:16.071Z,19.90
2019-02-11T20:17:43.976Z,19.90
2019-02-11T20:20:12.856Z,20.00
2019-02-11T20:22:41.102Z,20.00
2019-02-11T20:25:08.949Z,20.00
2019-02-11T20:27:36.847Z,20.00
2019-02-11T20:30:05.243Z,20.00
2019-02-11T20:32:33.135Z,20.00
2019-02-11T20:35:00.979Z,20.00
2019-02-11T20:37:29.190Z,20.00
2019-02-11T20:40:03.194Z,20.00
2019-02-11T20:42:26.805Z,20.00
2019-02-11T20:44:54.661Z,20.00
2019-02-11T20:47:22.556Z,20.00
2019-02-11T20:49:50.398Z,20.00
2019-02-11T20:52:18.271Z,20.00
2019-02-11T20:54:46.122Z,20.00
2019-02-11T20:57:13.975Z,20.00
2019-02-11T20:59:41.898Z,20.00
2019-02-11T21:02:09.747Z,20.00
2019-02-11T21:04:37.582Z,20.00
2019-02-11T21:07:05.804Z,20.00
2019-02-11T21:09:33.666Z,20.00
2019-02-11T21:12:01.495Z,20.00
2019-02-11T21:14:29.743Z,20.00
2019-02-11T21:16:57.584Z,20.00
2019-02-11T21:19:25.787Z,20.00
2019-02-11T21:21:53.636Z,20.00
2019-02-11T21:24:21.542Z,20.10
2019-02-11T21:26:49.396Z,20.10
2019-02-11T21:29:17.282Z,20.10
2019-02-11T21:31:45.642Z,20.10
2019-02-11T21:34:13.903Z,20.10
2019-02-11T21:36:41.743Z,20.10
2019-02-11T21:39:09.635Z,20.10
2019-02-11T21:41:37.476Z,20.10
2019-02-11T21:44:05.375Z,20.10
2019-02-11T21:46:33.213Z,20.10
2019-02-11T21:49:01.098Z,20.10
2019-02-11T21:51:29.253Z,19.90
2019-02-11T21:53:57.127Z,19.50
2019-02-11T21:56:24.967Z,19.40
2019-02-11T21:58:52.843Z,19.30
2019-02-11T22:01:20.692Z,19.20
2019-02-11T22:03:48.576Z,19.20
2019-02-11T22:06:16.420Z,19.20
2019-02-11T22:08:44.295Z,19.20
2019-02-11T22:11:12.130Z,19.20
2019-02-11T22:13:40.291Z,19.20
2019-02-11T22:16:08.422Z,19.20
2019-02-11T22:18:36.628Z,19.10
2019-02-11T22:21:04.475Z,19.10
2019-02-11T22:23:32.342Z,19.10
2019-02-11T22:26:00.182Z,19.10
2019-02-11T22:28:28.043Z,19.10
2019-02-11T22:30:55.944Z,19.10
2019-02-11T22:33:25.295Z,19.00
2019-02-11T22:35:53.135Z,19.00
2019-02-11T22:38:21.436Z,19.00
2019-02-11T22:40:49.279Z,19.00
2019-02-11T22:43:17.216Z,19.00
2019-02-11T22:45:45.123Z,19.00
2019-02-11T22:48:13.293Z,19.00
2019-02-11T22:50:43.225Z,19.00
2019-02-11T22:53:10.695Z,18.90
2019-02-11T22:55:38.827Z,18.90
2019-02-11T22:58:06.991Z,18.90
2019-02-11T23:00:44.263Z,18.90
2019-02-11T23:03:12.551Z,18.90
2019-02-11T23:05:40.396Z,18.90
2019-02-11T23:08:08.315Z,18.90
2019-02-11T23:10:36.260Z,18.80
2019-02-11T23:13:04.097Z,18.80
2019-02-11T23:15:32.167Z,18.80
2019-02-11T23:18:00.374Z,18.80
2019-02-11T23:20:28.296Z,18.80
2019-02-11T23:22:56.160Z,18.80
2019-02-11T23:25:24.079Z,18.80
2019-02-11T23:27:52.226Z,18.80
2019-02-11T23:30:20.079Z,18.80
2019-02-11T23:32:48.071Z,18.80
2019-02-11T23:35:15.923Z,18.70
2019-02-11T23:37:44.104Z,18.70
2019-02-11T23:40:12.040Z,18.70
2019-02-11T23:42:39.882Z,18.70
2019-02-11T23:45:07.813Z,18.70
2019-02-11T23:47:35.736Z,18.70
2019-02-11T23:50:03.948Z,18.70
2019-02-11T23:52:31.792Z,18.70
2019-02-11T23:54:59.656Z,18.70
2019-02-11T23:57:28.182Z,18.70
2019-02-11T23:59:56.574Z,18.60
